Virtual Norwegian is not affiliated with Norwegian Air Shuttle in any way.
If you are looking for the real "Norwegian", or you wish to book Norwegian flights, please visit Norwegian.com


We use cookies to ensure you get the best experience on our website.   ACCEPT

LFMN - NCE - Nice (Cote D\'Azur)

General Info Alternate Airport
ICAO: LFMN Elevation: 12 ft ICAO: LFML
IATA: NCE Country: France IATA: MRS
City: Nice Charts: Log in to view charts City: Marseille
Name: Cote D\'Azur Hub: No Name Provence
General Info
ICAO: LFMN
IATA: NCE
City: Nice
Name: Cote D\'Azur
Elevation: 12 ft
Country: France
Charts: Log in to view charts
Hub: No
 
Alternate Airport
ICAO: LFML
IATA: MRS
City: Marseille
Name: Provence

Weather
192030Z 10007KT 9999 BKN016 BKN260 25/22 Q1012 NOSIG
Weather
192030Z 10007KT 9999 BKN016 BKN260 25/22 Q1012 NOSIG

Runway Info
04L
Length ILS/LOC Course
2570 m 109.95 044
04R
Length ILS/LOC Course
2960 m 110.70 042
22L
Length ILS/LOC Heading
2960 m N/A 225
22R
Length ILS/LOC Heading
2570 m N/A 225

NOTAMs
NOTAMs currently unavailable.
NOTAMs
NOTAMs currently unavailable

Route map
Airport
Airport (hub)